Time;durP1;ratioP1;P1;durP2;ratioP2;P2;SDS_P1;SDS_P2;PMS_P1;PMS_P2;Temp;Humidity;BMP_temperature;BMP_pressure;BME280_temperature;BME280_humidity;BME280_pressure;Samples;Min_cycle;Max_cycle;Signal;HPM_P1;HPM_P2
2023/12/26 00:01:45;;;;;;;0.60;0.60;;;22.40;57.40;;;;;;4935849;29;20464;-84
2023/12/26 00:04:15;;;;;;;0.70;0.70;;;22.40;57.50;;;;;;4938445;29;20443;-83
2023/12/26 00:06:47;;;;;;;2.27;0.63;;;22.40;57.30;;;;;;4931940;29;20472;-83
2023/12/26 00:09:16;;;;;;;0.60;0.60;;;22.40;57.80;;;;;;4920281;29;20874;-83
2023/12/26 00:11:46;;;;;;;0.60;0.57;;;22.40;57.80;;;;;;4935622;29;20451;-83
2023/12/26 00:14:16;;;;;;;0.57;0.57;;;22.40;57.50;;;;;;4934094;29;20480;-87
2023/12/26 00:16:47;;;;;;;0.70;0.70;;;22.40;57.70;;;;;;4933855;29;20492;-84
2023/12/26 00:19:15;;;;;;;0.93;0.80;;;22.30;58.00;;;;;;4928629;29;20460;-84
2023/12/26 00:21:44;;;;;;;0.50;0.40;;;22.30;57.30;;;;;;4922914;29;20478;-86
2023/12/26 00:24:13;;;;;;;0.60;0.60;;;22.30;57.70;;;;;;4950582;29;20463;-84
2023/12/26 00:26:42;;;;;;;0.83;0.60;;;22.30;57.90;;;;;;4942818;29;21376;-84
2023/12/26 00:29:10;;;;;;;0.67;0.67;;;22.30;57.30;;;;;;4925417;29;20479;-83
2023/12/26 00:31:41;;;;;;;1.43;0.60;;;22.30;57.60;;;;;;4937505;29;20444;-83
2023/12/26 00:34:10;;;;;;;1.60;0.70;;;22.20;57.50;;;;;;4919181;29;20476;-83
2023/12/26 00:36:39;;;;;;;0.50;0.50;;;22.20;57.60;;;;;;4933480;29;20479;-84
2023/12/26 00:39:07;;;;;;;0.70;0.70;;;22.20;57.70;;;;;;4948306;29;20464;-84
2023/12/26 00:41:36;;;;;;;0.60;0.60;;;22.20;57.50;;;;;;4919975;29;20506;-84
2023/12/26 00:44:05;;;;;;;0.63;0.63;;;22.20;57.80;;;;;;4937628;29;20471;-87
2023/12/26 00:46:33;;;;;;;1.57;0.63;;;22.20;57.70;;;;;;4943175;29;20459;-83
2023/12/26 00:49:02;;;;;;;1.13;0.63;;;22.20;57.70;;;;;;4938340;29;20481;-83
2023/12/26 00:51:32;;;;;;;0.80;0.57;;;22.20;57.50;;;;;;4928575;29;20915;-83
2023/12/26 00:54:00;;;;;;;0.57;0.57;;;22.10;57.40;;;;;;4919092;29;20494;-83
2023/12/26 00:56:28;;;;;;;0.87;0.87;;;22.10;57.30;;;;;;4933300;29;20475;-83
2023/12/26 00:58:58;;;;;;;0.73;0.70;;;22.10;57.50;;;;;;4945892;29;20454;-84
2023/12/26 01:01:26;;;;;;;0.63;0.60;;;22.10;57.70;;;;;;4937825;29;20461;-84
2023/12/26 01:03:55;;;;;;;0.80;0.80;;;22.10;57.90;;;;;;4941647;29;20491;-84
2023/12/26 01:06:23;;;;;;;0.70;0.70;;;22.10;58.00;;;;;;4953714;29;20505;-84
2023/12/26 01:08:53;;;;;;;0.70;0.70;;;22.10;58.10;;;;;;4941544;29;20875;-83
2023/12/26 01:11:21;;;;;;;0.77;0.77;;;22.10;58.30;;;;;;4936777;29;20463;-84
2023/12/26 01:13:49;;;;;;;0.70;0.70;;;22.10;57.60;;;;;;4941779;29;20455;-84
2023/12/26 01:16:18;;;;;;;0.60;0.60;;;22.10;57.90;;;;;;4922817;29;20466;-87
2023/12/26 01:18:47;;;;;;;1.00;1.00;;;22.10;58.20;;;;;;4944491;29;20450;-84
2023/12/26 01:21:15;;;;;;;0.63;0.63;;;22.10;58.00;;;;;;4932285;29;20468;-84
2023/12/26 01:23:44;;;;;;;0.60;0.60;;;22.10;57.80;;;;;;4939498;28;20563;-84
2023/12/26 01:26:13;;;;;;;0.93;0.93;;;22.10;58.10;;;;;;4940352;29;20461;-85
2023/12/26 01:28:42;;;;;;;0.80;0.80;;;22.00;58.10;;;;;;4937591;29;20864;-87
2023/12/26 01:31:10;;;;;;;0.50;0.50;;;22.00;57.80;;;;;;4919426;29;20471;-84
2023/12/26 01:33:39;;;;;;;0.67;0.60;;;22.00;58.20;;;;;;4943127;29;20454;-84
2023/12/26 01:36:08;;;;;;;0.60;0.60;;;22.00;57.90;;;;;;4937679;29;20516;-83
2023/12/26 01:38:36;;;;;;;0.50;0.50;;;22.00;58.40;;;;;;4916554;29;20529;-84
2023/12/26 01:41:05;;;;;;;0.50;0.50;;;22.00;58.40;;;;;;4927541;29;20468;-83
2023/12/26 01:43:34;;;;;;;0.50;0.50;;;22.00;58.30;;;;;;4916891;29;20999;-84
2023/12/26 01:46:03;;;;;;;0.60;0.50;;;22.00;58.40;;;;;;4927531;29;20456;-87
2023/12/26 01:48:32;;;;;;;0.83;0.50;;;22.00;58.40;;;;;;4925099;29;20466;-83
2023/12/26 01:51:02;;;;;;;0.57;0.57;;;22.00;58.40;;;;;;4920145;29;20455;-83
2023/12/26 01:53:30;;;;;;;0.70;0.40;;;22.00;58.40;;;;;;4943642;29;20467;-83
2023/12/26 01:55:59;;;;;;;0.63;0.63;;;22.00;58.40;;;;;;4934886;29;20505;-85
2023/12/26 01:58:28;;;;;;;0.70;0.70;;;22.00;58.40;;;;;;4947112;29;20442;-84
2023/12/26 02:00:57;;;;;;;0.67;0.67;;;22.00;58.40;;;;;;4934663;29;20841;-83
2023/12/26 02:03:27;;;;;;;0.70;0.70;;;22.00;58.20;;;;;;4930621;29;20459;-84
2023/12/26 02:05:56;;;;;;;0.67;0.67;;;22.00;58.30;;;;;;4931336;29;20478;-83
2023/12/26 02:08:25;;;;;;;0.60;0.60;;;22.00;57.90;;;;;;4941963;29;20494;-87
2023/12/26 02:10:53;;;;;;;0.73;0.60;;;21.90;58.20;;;;;;4918538;29;20464;-86
2023/12/26 02:13:22;;;;;;;0.73;0.60;;;21.90;58.00;;;;;;4940973;29;20490;-83
2023/12/26 02:15:53;;;;;;;0.47;0.40;;;21.90;58.20;;;;;;4934905;29;20497;-84
2023/12/26 02:18:22;;;;;;;0.50;0.50;;;21.80;58.20;;;;;;4946046;29;20458;-86
2023/12/26 02:20:51;;;;;;;0.50;0.50;;;21.80;58.10;;;;;;4947749;29;20466;-84
2023/12/26 02:23:20;;;;;;;0.53;0.50;;;21.80;58.10;;;;;;4940808;29;20511;-84
2023/12/26 02:25:51;;;;;;;0.83;0.83;;;21.80;58.50;;;;;;4936740;29;20547;-83
2023/12/26 02:28:19;;;;;;;0.60;0.60;;;21.80;58.30;;;;;;4933677;29;20962;-83
2023/12/26 02:30:51;;;;;;;0.53;0.53;;;21.80;58.40;;;;;;4935097;29;20554;-82
2023/12/26 02:33:20;;;;;;;0.70;0.50;;;21.80;58.40;;;;;;4943999;29;20528;-82
2023/12/26 02:35:49;;;;;;;0.77;0.77;;;21.80;58.10;;;;;;4935444;29;20482;-84
2023/12/26 02:38:18;;;;;;;0.60;0.60;;;21.80;58.20;;;;;;4938866;29;20477;-82
2023/12/26 02:40:51;;;;;;;0.50;0.50;;;21.80;58.30;;;;;;4925360;29;20471;-82
2023/12/26 02:43:21;;;;;;;0.87;0.60;;;21.80;58.50;;;;;;4928977;29;20466;-82
2023/12/26 02:45:50;;;;;;;0.60;0.60;;;21.80;57.80;;;;;;4935535;29;20467;-82
2023/12/26 02:48:18;;;;;;;0.53;0.53;;;21.80;58.00;;;;;;4936430;29;20837;-82
2023/12/26 02:50:47;;;;;;;0.60;0.60;;;21.80;58.00;;;;;;4948392;29;20469;-82
2023/12/26 02:53:16;;;;;;;0.50;0.50;;;21.80;58.20;;;;;;4945424;29;20450;-84
2023/12/26 02:55:44;;;;;;;0.70;0.70;;;21.70;58.30;;;;;;4933769;29;20488;-86
2023/12/26 02:58:12;;;;;;;0.60;0.60;;;21.70;57.90;;;;;;4938190;28;20462;-82
2023/12/26 03:00:42;;;;;;;0.80;0.63;;;21.70;57.90;;;;;;4903884;29;20464;-82
2023/12/26 03:03:10;;;;;;;0.60;0.60;;;21.70;58.10;;;;;;4934589;29;20462;-82
2023/12/26 03:05:39;;;;;;;0.63;0.60;;;21.70;58.20;;;;;;4934320;29;20467;-82
2023/12/26 03:08:07;;;;;;;0.67;0.67;;;21.70;58.20;;;;;;4926667;29;20857;-82
2023/12/26 03:10:36;;;;;;;0.60;0.60;;;21.60;58.10;;;;;;4922290;29;20452;-82
2023/12/26 03:13:04;;;;;;;1.00;0.90;;;21.60;57.80;;;;;;4927565;29;20549;-85
2023/12/26 03:15:33;;;;;;;0.73;0.70;;;21.60;58.20;;;;;;4934663;29;20526;-82
2023/12/26 03:18:02;;;;;;;0.83;0.70;;;21.60;58.40;;;;;;4933459;29;20801;-84
2023/12/26 03:20:31;;;;;;;0.60;0.60;;;21.60;58.40;;;;;;4933206;29;20470;-82
2023/12/26 03:23:00;;;;;;;0.93;0.70;;;21.60;58.20;;;;;;4938967;28;20487;-84
2023/12/26 03:25:28;;;;;;;0.40;0.40;;;21.60;58.00;;;;;;4915351;29;20467;-82
2023/12/26 03:27:58;;;;;;;0.63;0.63;;;21.50;58.00;;;;;;4933429;29;20459;-83
2023/12/26 03:30:26;;;;;;;0.60;0.50;;;21.60;58.20;;;;;;4934350;29;20471;-88
2023/12/26 03:32:54;;;;;;;0.70;0.70;;;21.50;58.10;;;;;;4936866;29;20467;-83
2023/12/26 03:35:25;;;;;;;0.40;0.40;;;21.50;58.10;;;;;;4934441;29;20490;-82
2023/12/26 03:37:53;;;;;;;0.67;0.67;;;21.50;58.30;;;;;;4933899;29;20468;-82
2023/12/26 03:40:22;;;;;;;0.70;0.70;;;21.50;58.10;;;;;;4934266;29;20950;-83
2023/12/26 03:42:51;;;;;;;0.67;0.67;;;21.50;58.10;;;;;;4933650;29;20473;-82
2023/12/26 03:45:20;;;;;;;0.70;0.60;;;21.50;58.30;;;;;;4934774;29;20459;-82
2023/12/26 03:47:48;;;;;;;0.70;0.70;;;21.50;58.20;;;;;;4933711;29;20967;-82
2023/12/26 03:50:17;;;;;;;0.97;0.80;;;21.50;58.10;;;;;;4933771;29;20460;-82
2023/12/26 03:52:46;;;;;;;0.53;0.53;;;21.50;58.10;;;;;;4942065;29;20449;-83
2023/12/26 03:55:16;;;;;;;0.60;0.60;;;21.50;57.90;;;;;;4931587;29;20486;-82
2023/12/26 03:57:45;;;;;;;0.57;0.57;;;21.50;58.30;;;;;;4933157;29;20454;-89
2023/12/26 04:00:15;;;;;;;0.60;0.60;;;21.50;58.20;;;;;;4914916;29;20475;-83
2023/12/26 04:02:47;;;;;;;0.57;0.57;;;21.50;58.20;;;;;;4929374;29;20487;-82
2023/12/26 04:05:16;;;;;;;0.50;0.50;;;21.50;58.20;;;;;;4925671;29;20477;-82
2023/12/26 04:07:47;;;;;;;0.67;0.60;;;21.40;58.20;;;;;;4928154;29;20461;-83
2023/12/26 04:10:15;;;;;;;0.70;0.70;;;21.40;58.50;;;;;;4916634;29;20464;-83
2023/12/26 04:12:44;;;;;;;0.57;0.57;;;21.40;58.30;;;;;;4916848;29;20464;-86
2023/12/26 04:15:13;;;;;;;0.53;0.50;;;21.40;58.20;;;;;;4917115;29;20468;-82
2023/12/26 04:17:42;;;;;;;0.50;0.50;;;21.40;58.50;;;;;;4929587;29;20487;-83
2023/12/26 04:20:11;;;;;;;0.60;0.60;;;21.40;58.10;;;;;;4930413;29;20467;-82
2023/12/26 04:22:39;;;;;;;0.57;0.57;;;21.40;58.40;;;;;;4925753;29;20906;-83
2023/12/26 04:25:09;;;;;;;0.50;0.50;;;21.40;58.20;;;;;;4916626;29;20966;-83
2023/12/26 04:27:37;;;;;;;0.53;0.50;;;21.40;58.70;;;;;;4932760;29;20463;-83
2023/12/26 04:30:07;;;;;;;0.77;0.70;;;21.40;58.20;;;;;;4933413;29;20459;-82
2023/12/26 04:32:36;;;;;;;0.60;0.60;;;21.40;58.50;;;;;;4927682;29;20452;-82
2023/12/26 04:35:06;;;;;;;0.60;0.60;;;21.40;58.40;;;;;;4919850;29;20562;-83
2023/12/26 04:37:34;;;;;;;0.60;0.60;;;21.40;58.50;;;;;;4925669;29;20478;-84
2023/12/26 04:40:03;;;;;;;0.60;0.60;;;21.40;58.50;;;;;;4923821;29;20461;-82
2023/12/26 04:42:32;;;;;;;0.50;0.50;;;21.40;58.60;;;;;;4917692;29;20463;-82
2023/12/26 04:45:01;;;;;;;1.00;0.70;;;21.40;58.40;;;;;;4916708;29;20477;-82
2023/12/26 04:47:29;;;;;;;0.70;0.50;;;21.40;58.50;;;;;;4933376;29;20462;-82
2023/12/26 04:49:59;;;;;;;0.60;0.60;;;21.40;58.30;;;;;;4931646;29;20458;-84
2023/12/26 04:52:27;;;;;;;0.50;0.50;;;21.40;58.60;;;;;;4916133;29;20466;-83
2023/12/26 04:54:56;;;;;;;0.60;0.60;;;21.40;58.30;;;;;;4928590;29;20548;-83
2023/12/26 04:57:24;;;;;;;0.47;0.37;;;21.40;58.40;;;;;;4917055;29;20506;-82
2023/12/26 04:59:54;;;;;;;1.43;1.33;;;21.40;58.70;;;;;;4933445;29;20550;-84
2023/12/26 05:02:22;;;;;;;0.60;0.60;;;21.40;58.00;;;;;;4915743;29;20980;-85
2023/12/26 05:04:51;;;;;;;0.57;0.57;;;21.40;58.20;;;;;;4920504;29;20553;-83
2023/12/26 05:07:19;;;;;;;0.60;0.60;;;21.40;58.10;;;;;;4933505;29;20462;-83
2023/12/26 05:09:48;;;;;;;0.50;0.50;;;21.40;58.40;;;;;;4942694;29;20470;-82
2023/12/26 05:12:16;;;;;;;0.50;0.50;;;21.40;58.30;;;;;;4918076;29;20468;-82
2023/12/26 05:14:44;;;;;;;0.60;0.60;;;21.40;58.60;;;;;;4922854;29;20543;-85
2023/12/26 05:17:16;;;;;;;1.00;0.60;;;21.50;58.70;;;;;;4943226;29;20581;-83
2023/12/26 05:19:44;;;;;;;0.73;0.60;;;21.60;58.40;;;;;;4937444;29;20816;-86
2023/12/26 05:22:13;;;;;;;0.40;0.40;;;21.60;58.70;;;;;;4940877;28;20497;-84
2023/12/26 05:24:41;;;;;;;0.50;0.50;;;21.70;58.40;;;;;;4944126;29;20808;-83
2023/12/26 05:27:20;;;;;;;0.57;0.50;;;21.80;58.10;;;;;;4936103;29;20556;-82
2023/12/26 05:29:49;;;;;;;0.60;0.60;;;21.80;58.00;;;;;;4936317;29;20522;-82
2023/12/26 05:32:19;;;;;;;0.50;0.50;;;21.90;57.80;;;;;;4927279;29;20531;-82
2023/12/26 05:34:48;;;;;;;0.53;0.53;;;21.90;57.70;;;;;;4917501;29;20472;-82
2023/12/26 05:37:17;;;;;;;0.70;0.70;;;22.00;57.30;;;;;;4933256;29;20844;-82
2023/12/26 05:39:45;;;;;;;0.57;0.57;;;22.00;57.20;;;;;;4936362;29;20506;-83
2023/12/26 05:42:14;;;;;;;0.80;0.80;;;22.10;57.50;;;;;;4946289;29;20470;-82
2023/12/26 05:44:43;;;;;;;0.60;0.60;;;22.20;57.20;;;;;;4909543;29;20506;-84
2023/12/26 05:47:11;;;;;;;0.57;0.57;;;22.20;57.10;;;;;;4915775;29;20468;-83
2023/12/26 05:49:42;;;;;;;0.60;0.60;;;22.30;56.70;;;;;;4914665;29;20462;-82
2023/12/26 05:52:11;;;;;;;1.07;0.70;;;22.30;56.80;;;;;;4917417;29;20899;-82
2023/12/26 05:54:40;;;;;;;0.67;0.67;;;22.40;56.60;;;;;;4932634;29;20452;-83
2023/12/26 05:57:08;;;;;;;0.60;0.60;;;22.40;56.60;;;;;;4934466;29;20613;-85
2023/12/26 05:59:37;;;;;;;0.63;0.63;;;22.40;56.60;;;;;;4930571;29;20983;-82
2023/12/26 06:02:06;;;;;;;0.67;0.67;;;22.40;56.60;;;;;;4916444;29;20823;-82
2023/12/26 06:04:36;;;;;;;0.60;0.60;;;22.40;56.50;;;;;;4918525;29;20831;-83
2023/12/26 06:07:07;;;;;;;0.70;0.60;;;22.40;56.60;;;;;;4943142;29;20458;-88
2023/12/26 06:09:35;;;;;;;0.50;0.50;;;22.30;56.60;;;;;;4923821;29;20472;-84
2023/12/26 06:12:04;;;;;;;0.43;0.43;;;22.30;56.50;;;;;;4941801;29;20463;-84
2023/12/26 06:14:33;;;;;;;0.87;0.50;;;22.20;56.70;;;;;;4943121;29;20476;-82
2023/12/26 06:17:01;;;;;;;0.60;0.60;;;22.20;56.80;;;;;;4931891;29;20490;-85
2023/12/26 06:19:30;;;;;;;0.50;0.50;;;22.10;56.80;;;;;;4921754;29;20473;-82
2023/12/26 06:21:58;;;;;;;0.50;0.50;;;22.10;57.00;;;;;;4920593;29;20490;-82
2023/12/26 06:24:29;;;;;;;0.60;0.60;;;22.10;56.90;;;;;;4914632;29;20465;-82
2023/12/26 06:26:57;;;;;;;0.60;0.60;;;22.00;57.00;;;;;;4933285;29;20462;-83
2023/12/26 06:29:26;;;;;;;0.50;0.50;;;22.00;57.30;;;;;;4935081;29;20950;-82
2023/12/26 06:31:54;;;;;;;0.50;0.50;;;21.90;57.20;;;;;;4947615;29;20454;-86
2023/12/26 06:34:23;;;;;;;0.70;0.60;;;21.90;57.50;;;;;;4937406;28;20839;-82
2023/12/26 06:36:51;;;;;;;0.60;0.60;;;21.80;57.30;;;;;;4941700;29;20938;-82
2023/12/26 06:39:19;;;;;;;1.53;0.70;;;21.80;57.30;;;;;;4922672;29;20492;-82
2023/12/26 06:41:51;;;;;;;0.77;0.70;;;21.80;57.30;;;;;;4920664;29;20505;-82
2023/12/26 06:44:19;;;;;;;0.60;0.60;;;21.70;57.20;;;;;;4922157;29;20467;-82
2023/12/26 06:46:47;;;;;;;0.63;0.63;;;21.70;57.30;;;;;;4919993;29;20549;-82
2023/12/26 06:49:17;;;;;;;0.50;0.50;;;21.70;57.30;;;;;;4933670;29;20481;-82
2023/12/26 06:51:48;;;;;;;0.60;0.60;;;21.70;57.40;;;;;;4923969;29;20495;-82
2023/12/26 06:54:18;;;;;;;1.50;1.07;;;21.70;57.40;;;;;;4927868;29;20477;-82
2023/12/26 06:56:47;;;;;;;0.57;0.57;;;21.70;57.50;;;;;;4914095;29;20936;-83
2023/12/26 06:59:17;;;;;;;0.70;0.50;;;21.70;57.70;;;;;;4937590;29;20522;-84
2023/12/26 07:01:48;;;;;;;0.40;0.40;;;21.80;58.30;;;;;;4933131;29;20578;-83
2023/12/26 07:04:16;;;;;;;0.50;0.40;;;21.80;58.40;;;;;;4924723;29;20456;-83
2023/12/26 07:06:45;;;;;;;0.50;0.50;;;21.90;58.00;;;;;;4934017;29;20537;-83
2023/12/26 07:09:13;;;;;;;0.50;0.50;;;21.90;58.40;;;;;;4933543;29;20464;-84
2023/12/26 07:11:41;;;;;;;0.50;0.40;;;21.90;57.70;;;;;;4934358;29;20497;-82
2023/12/26 07:14:10;;;;;;;1.57;0.40;;;22.00;58.10;;;;;;4930068;29;20456;-84
2023/12/26 07:16:39;;;;;;;0.60;0.60;;;22.00;58.20;;;;;;4934349;29;20974;-85
2023/12/26 07:19:07;;;;;;;0.53;0.53;;;22.00;58.00;;;;;;4933325;29;20891;-84
2023/12/26 07:21:36;;;;;;;0.60;0.60;;;22.10;57.90;;;;;;4938128;29;20473;-83
2023/12/26 07:24:05;;;;;;;1.63;0.73;;;22.10;57.80;;;;;;4939846;29;20461;-84
2023/12/26 07:26:34;;;;;;;0.63;0.63;;;22.10;57.40;;;;;;4932771;29;20459;-82
2023/12/26 07:29:02;;;;;;;0.50;0.47;;;22.10;57.40;;;;;;4932954;29;20483;-84
2023/12/26 07:31:31;;;;;;;0.43;0.43;;;22.10;57.10;;;;;;4934033;29;21015;-84
2023/12/26 07:34:04;;;;;;;0.60;0.60;;;22.10;57.60;;;;;;4937374;29;20459;-83
2023/12/26 07:36:32;;;;;;;0.50;0.50;;;22.10;57.50;;;;;;4932561;29;20538;-82
2023/12/26 07:39:00;;;;;;;0.37;0.37;;;22.10;57.80;;;;;;4930125;29;20481;-82
2023/12/26 07:41:29;;;;;;;0.50;0.50;;;22.10;58.10;;;;;;4928908;29;21360;-82
2023/12/26 07:43:57;;;;;;;0.40;0.40;;;22.10;57.60;;;;;;4927293;29;20967;-83
2023/12/26 07:46:25;;;;;;;0.70;0.70;;;22.10;58.00;;;;;;4929106;29;20462;-82
2023/12/26 07:48:54;;;;;;;0.60;0.60;;;22.10;57.60;;;;;;4937993;29;20454;-82
2023/12/26 07:51:25;;;;;;;0.70;0.70;;;22.10;57.50;;;;;;4932151;29;20467;-85
2023/12/26 07:53:53;;;;;;;0.40;0.40;;;22.10;57.90;;;;;;4925438;29;20471;-82
2023/12/26 07:56:22;;;;;;;0.80;0.50;;;22.10;57.80;;;;;;4923518;29;20977;-85
2023/12/26 07:58:51;;;;;;;0.60;0.60;;;22.10;57.60;;;;;;4929778;29;20486;-82
2023/12/26 08:01:19;;;;;;;0.40;0.40;;;22.00;57.80;;;;;;4929646;29;20477;-82
2023/12/26 08:03:48;;;;;;;0.70;0.57;;;22.00;57.10;;;;;;4935892;29;20456;-82
2023/12/26 08:06:16;;;;;;;0.57;0.53;;;22.00;57.50;;;;;;4918250;29;20499;-83
2023/12/26 08:08:46;;;;;;;0.80;0.70;;;22.00;57.60;;;;;;4934001;29;20469;-83
2023/12/26 08:11:14;;;;;;;0.70;0.50;;;22.00;57.20;;;;;;4926915;29;20530;-87
2023/12/26 08:13:44;;;;;;;0.60;0.60;;;22.00;57.70;;;;;;4930631;29;20958;-85
2023/12/26 08:16:12;;;;;;;0.83;0.60;;;22.00;57.90;;;;;;4936062;29;20462;-81
2023/12/26 08:18:40;;;;;;;0.50;0.50;;;22.00;57.90;;;;;;4929352;29;20485;-81
2023/12/26 08:21:09;;;;;;;0.40;0.40;;;22.00;58.10;;;;;;4933918;29;20448;-82
2023/12/26 08:23:37;;;;;;;0.70;0.50;;;22.00;58.10;;;;;;4934815;29;20925;-83
2023/12/26 08:26:08;;;;;;;0.50;0.50;;;22.00;58.20;;;;;;4932565;29;20467;-82
2023/12/26 08:28:36;;;;;;;0.50;0.50;;;22.00;58.20;;;;;;4930989;29;20463;-82
2023/12/26 08:31:05;;;;;;;0.60;0.60;;;22.00;58.10;;;;;;4937315;29;20469;-82
2023/12/26 08:33:35;;;;;;;0.40;0.40;;;22.00;58.20;;;;;;4932941;29;20463;-86
2023/12/26 08:36:04;;;;;;;0.63;0.63;;;22.10;58.20;;;;;;4935008;29;20453;-81
2023/12/26 08:38:35;;;;;;;0.50;0.40;;;22.10;58.10;;;;;;4934816;29;20488;-84
2023/12/26 08:41:05;;;;;;;0.60;0.60;;;22.10;58.10;;;;;;4921304;29;21123;-82
2023/12/26 08:43:35;;;;;;;0.97;0.50;;;22.10;57.90;;;;;;4923424;29;20475;-81
2023/12/26 08:46:03;;;;;;;0.57;0.53;;;22.10;57.80;;;;;;4924864;29;20955;-81
2023/12/26 08:48:32;;;;;;;0.87;0.73;;;22.20;57.50;;;;;;4929239;29;20537;-82
2023/12/26 08:51:00;;;;;;;1.03;0.73;;;22.20;57.80;;;;;;4930697;29;20570;-82
2023/12/26 08:53:28;;;;;;;0.90;0.70;;;22.20;57.50;;;;;;4938575;29;20450;-82
2023/12/26 08:55:57;;;;;;;0.40;0.40;;;22.20;57.90;;;;;;4916476;29;20464;-82
2023/12/26 08:58:29;;;;;;;0.50;0.50;;;22.20;57.70;;;;;;4936041;29;20490;-86
2023/12/26 09:00:59;;;;;;;0.60;0.60;;;22.30;57.20;;;;;;4935941;29;20461;-86
2023/12/26 09:03:28;;;;;;;0.73;0.60;;;22.30;57.70;;;;;;4934548;29;20462;-84
2023/12/26 09:05:56;;;;;;;0.53;0.53;;;22.30;57.40;;;;;;4918596;29;20492;-86
2023/12/26 09:08:25;;;;;;;0.57;0.57;;;22.30;57.80;;;;;;4928942;29;20495;-86
2023/12/26 09:10:53;;;;;;;0.50;0.50;;;22.40;57.40;;;;;;4940142;29;20450;-83
2023/12/26 09:13:21;;;;;;;0.70;0.70;;;22.40;57.50;;;;;;4937532;29;20463;-82
2023/12/26 09:15:50;;;;;;;0.50;0.50;;;22.40;57.10;;;;;;4935900;29;20459;-83
2023/12/26 09:18:19;;;;;;;1.13;0.63;;;22.40;57.50;;;;;;4929046;29;20463;-82
2023/12/26 09:20:48;;;;;;;0.50;0.50;;;22.30;57.40;;;;;;4936216;29;20499;-82
2023/12/26 09:23:18;;;;;;;0.50;0.50;;;22.30;57.10;;;;;;4941479;29;20600;-84
2023/12/26 09:25:46;;;;;;;0.50;0.50;;;22.30;57.50;;;;;;4928001;29;20482;-84
2023/12/26 09:28:15;;;;;;;0.57;0.57;;;22.30;57.70;;;;;;4913944;29;20477;-84
2023/12/26 09:30:43;;;;;;;0.60;0.53;;;22.30;57.70;;;;;;4932470;29;21058;-84
2023/12/26 09:33:12;;;;;;;0.40;0.40;;;22.20;57.70;;;;;;4936507;29;21029;-83
2023/12/26 09:35:42;;;;;;;0.60;0.60;;;22.30;57.60;;;;;;4936030;29;20455;-83
2023/12/26 09:38:10;;;;;;;0.80;0.80;;;22.20;57.30;;;;;;4937056;29;20459;-86
2023/12/26 09:40:39;;;;;;;0.60;0.60;;;22.20;57.30;;;;;;4933005;29;20492;-83
2023/12/26 09:43:07;;;;;;;0.40;0.40;;;22.20;57.50;;;;;;4939274;29;20486;-84
2023/12/26 09:45:36;;;;;;;0.60;0.60;;;22.10;57.60;;;;;;4934351;29;20459;-82
2023/12/26 09:48:05;;;;;;;0.90;0.53;;;22.10;57.50;;;;;;4936366;29;20536;-83
2023/12/26 09:50:33;;;;;;;0.57;0.57;;;22.10;57.70;;;;;;4935350;29;20463;-81
2023/12/26 09:53:08;;;;;;;0.47;0.47;;;22.10;57.70;;;;;;4940059;29;20455;-81
2023/12/26 09:55:36;;;;;;;0.50;0.50;;;22.10;57.70;;;;;;4945572;29;20451;-83
2023/12/26 09:58:06;;;;;;;0.60;0.50;;;22.10;57.80;;;;;;4940235;29;20459;-84
2023/12/26 10:00:37;;;;;;;0.47;0.47;;;22.10;57.50;;;;;;4949516;29;20977;-86
2023/12/26 10:03:06;;;;;;;0.70;0.50;;;22.20;57.60;;;;;;4935554;29;20476;-83
2023/12/26 10:05:34;;;;;;;0.43;0.43;;;22.20;57.90;;;;;;4925074;29;20825;-82
2023/12/26 10:08:05;;;;;;;0.50;0.50;;;22.30;57.90;;;;;;4937388;28;20510;-82
2023/12/26 10:10:34;;;;;;;0.50;0.43;;;22.30;57.70;;;;;;4921434;29;20806;-81
2023/12/26 10:13:02;;;;;;;1.37;0.70;;;22.40;57.80;;;;;;4932439;29;20467;-83
2023/12/26 10:15:30;;;;;;;0.40;0.40;;;22.40;57.60;;;;;;4918396;29;20468;-84
2023/12/26 10:17:59;;;;;;;0.53;0.50;;;22.50;57.40;;;;;;4933401;29;20449;-87
2023/12/26 10:20:34;;;;;;;0.67;0.57;;;22.50;57.60;;;;;;4933598;29;20535;-83
2023/12/26 10:23:05;;;;;;;0.80;0.63;;;22.50;57.20;;;;;;4930596;29;20510;-85
2023/12/26 10:25:33;;;;;;;0.70;0.70;;;22.60;57.40;;;;;;4916652;29;20465;-82
2023/12/26 10:28:02;;;;;;;0.40;0.40;;;22.60;57.20;;;;;;4934293;29;20491;-83
2023/12/26 10:30:31;;;;;;;0.70;0.50;;;22.70;57.20;;;;;;4934476;29;20474;-84
2023/12/26 10:33:00;;;;;;;0.40;0.40;;;22.70;57.20;;;;;;4933246;29;20460;-82
2023/12/26 10:35:29;;;;;;;0.63;0.63;;;22.70;57.10;;;;;;4941936;29;20448;-84
2023/12/26 10:37:59;;;;;;;0.50;0.50;;;22.80;57.00;;;;;;4931788;29;20456;-82
2023/12/26 10:40:29;;;;;;;0.57;0.57;;;22.80;57.00;;;;;;4926736;29;20482;-86
2023/12/26 10:43:00;;;;;;;0.77;0.77;;;22.80;57.00;;;;;;4930307;29;20558;-87
2023/12/26 10:45:30;;;;;;;0.63;0.60;;;22.70;57.00;;;;;;4932998;29;20468;-83
2023/12/26 10:48:00;;;;;;;0.50;0.50;;;22.70;57.00;;;;;;4930438;29;20459;-84
2023/12/26 10:50:32;;;;;;;0.57;0.57;;;22.70;57.00;;;;;;4930377;29;20464;-82
2023/12/26 10:53:15;;;;;;;1.90;0.67;;;22.70;56.80;;;;;;4934118;29;20467;-82
2023/12/26 10:55:46;;;;;;;0.50;0.43;;;22.70;57.00;;;;;;4932751;29;20455;-83
2023/12/26 10:58:23;;;;;;;1.07;0.50;;;22.70;57.10;;;;;;4924159;29;20485;-82
2023/12/26 11:00:51;;;;;;;0.67;0.50;;;22.60;57.00;;;;;;4924369;29;20956;-83
2023/12/26 13:53:51;;;;;;;1.07;0.50;;;22.80;57.10;;;;;;4909371;29;20469;-86
2023/12/26 13:56:57;;;;;;;0.60;0.60;;;22.80;57.10;;;;;;4910478;29;20484;-85
2023/12/26 14:00:04;;;;;;;0.97;0.73;;;22.80;57.10;;;;;;4908997;29;20505;-86
2023/12/26 14:02:39;;;;;;;0.60;0.60;;;22.80;57.10;;;;;;4905599;29;20460;-88
2023/12/26 14:05:07;;;;;;;1.40;0.70;;;22.80;56.90;;;;;;4909668;29;20528;-85
2023/12/26 14:08:14;;;;;;;0.93;0.70;;;22.80;56.90;;;;;;4908303;29;20453;-86
2023/12/26 14:11:20;;;;;;;0.70;0.60;;;22.80;56.90;;;;;;4911112;29;20488;-86
2023/12/26 14:13:50;;;;;;;0.60;0.60;;;22.80;57.10;;;;;;4910704;29;20926;-86
2023/12/26 14:16:19;;;;;;;0.50;0.50;;;22.70;57.00;;;;;;4907477;29;20469;-85
2023/12/26 14:18:47;;;;;;;0.50;0.50;;;22.70;57.10;;;;;;4905218;29;20964;-85
2023/12/26 14:21:53;;;;;;;0.70;0.70;;;22.70;57.10;;;;;;4899487;29;20481;-86
2023/12/26 14:24:21;;;;;;;2.83;0.80;;;22.70;57.30;;;;;;4914198;29;20460;-87
2023/12/26 14:26:50;;;;;;;1.37;0.70;;;22.70;57.40;;;;;;4917280;29;20477;-90
2023/12/26 14:29:55;;;;;;;0.60;0.60;;;22.70;57.40;;;;;;4920128;29;20464;-85
2023/12/26 14:33:02;;;;;;;2.30;0.70;;;22.70;57.40;;;;;;4913993;29;20455;-85
2023/12/26 14:35:32;;;;;;;1.40;0.60;;;22.60;57.40;;;;;;4911729;29;20464;-85
2023/12/26 14:38:00;;;;;;;0.60;0.60;;;22.60;57.50;;;;;;4914767;29;20552;-85
2023/12/26 14:41:06;;;;;;;1.43;0.70;;;22.60;57.30;;;;;;4914669;29;20495;-87
2023/12/26 14:44:12;;;;;;;0.60;0.60;;;22.60;57.50;;;;;;4893402;29;21563;-85
2023/12/26 14:46:40;;;;;;;0.87;0.70;;;22.60;57.60;;;;;;4910367;29;20473;-84
2023/12/26 14:49:08;;;;;;;0.50;0.50;;;22.60;57.60;;;;;;4917950;29;20478;-87
2023/12/26 14:52:14;;;;;;;0.83;0.83;;;22.60;57.60;;;;;;4898887;29;20466;-86
2023/12/26 14:55:20;;;;;;;0.67;0.67;;;22.60;57.60;;;;;;4918977;29;21004;-90
2023/12/26 14:57:50;;;;;;;0.93;0.90;;;22.60;57.60;;;;;;4914359;29;20529;-92
2023/12/26 15:00:18;;;;;;;1.00;0.87;;;22.60;57.60;;;;;;4916353;29;20456;-86
2023/12/26 15:02:48;;;;;;;3.07;0.70;;;22.60;57.50;;;;;;4914411;29;20448;-86
2023/12/26 15:05:16;;;;;;;0.83;0.70;;;22.70;57.50;;;;;;4904607;29;20944;-86
2023/12/26 15:07:44;;;;;;;0.70;0.70;;;22.70;57.50;;;;;;4895557;29;20473;-86
2023/12/26 15:10:15;;;;;;;1.00;0.90;;;22.70;57.40;;;;;;4915003;29;20458;-86
2023/12/26 15:12:43;;;;;;;0.67;0.67;;;22.80;57.40;;;;;;4913078;29;20476;-87
2023/12/26 15:15:13;;;;;;;0.90;0.70;;;22.80;57.30;;;;;;4917443;29;20446;-86
2023/12/26 15:17:43;;;;;;;0.70;0.70;;;22.80;57.30;;;;;;4915037;29;20465;-85
2023/12/26 15:20:12;;;;;;;2.37;0.83;;;22.80;57.20;;;;;;4910617;29;20461;-88
2023/12/26 15:22:40;;;;;;;0.73;0.73;;;22.80;57.20;;;;;;4921511;29;20852;-89
2023/12/26 15:25:09;;;;;;;1.37;0.93;;;22.80;57.10;;;;;;4935603;29;20466;-87
2023/12/26 15:27:37;;;;;;;0.60;0.60;;;22.80;57.20;;;;;;4929509;29;20468;-86
2023/12/26 15:30:07;;;;;;;0.63;0.63;;;22.80;57.20;;;;;;4933071;29;20459;-86
2023/12/26 15:32:37;;;;;;;0.80;0.60;;;22.80;57.20;;;;;;4929685;29;20464;-87
2023/12/26 15:35:07;;;;;;;0.60;0.53;;;22.70;57.20;;;;;;4931493;29;20940;-87
2023/12/26 15:37:36;;;;;;;0.97;0.70;;;22.70;57.10;;;;;;4932308;29;20512;-86
2023/12/26 15:40:05;;;;;;;0.80;0.70;;;22.70;57.20;;;;;;4927886;29;20473;-85
2023/12/26 15:42:34;;;;;;;0.93;0.90;;;22.70;57.30;;;;;;4932547;29;20511;-86
2023/12/26 15:45:03;;;;;;;1.00;0.73;;;22.60;57.30;;;;;;4931346;29;20457;-86
2023/12/26 15:47:32;;;;;;;0.73;0.70;;;22.60;57.40;;;;;;4932706;29;20464;-86
2023/12/26 15:50:02;;;;;;;1.10;1.00;;;22.60;57.40;;;;;;4930545;29;20456;-86
2023/12/26 15:52:30;;;;;;;0.80;0.80;;;22.50;57.40;;;;;;4930803;29;20588;-86
2023/12/26 15:54:59;;;;;;;0.70;0.70;;;22.50;57.50;;;;;;4932168;29;20447;-85